Thayer, Iowa
Current Conditions -  °F | °C
As of 5:35 PM on Saturday 22 Nov 2014 (Local Time) from KCSQ Reporting Station
Haze Haze  
Wind Chill: 54°   Ceiling: 300
Heat Index: 54°   Visibility: 2mi
Dew Point: 54°   Wind: 20mph
Humidity: 100%   Direction: 180°S
Pressure: 29.69"   Gusts: NA
Location:  41.03°N, 94.05°W
Report Text: KCSQ 222335Z AUTO 18017KT 2SM BR OVC003 12/12 A2969 RMK AO2
Loading
Personal Weather Stations






























Interactive Weather Map New forecast layout! Learn more

10-Day Weather Forecast

Advertisements
Track Severe Weather on mobile